This is the latest recevied weather packets stored in our database for station/object EB2GLU-13. If no packets are shown the sender has not sent any weather packets the latest 10 day(s).
| Time | Temp. | Humidity | Pressure | Rain* | Wind** | Luminosity | Snow |
|---|---|---|---|---|---|---|---|
| 1787386143 | 20° C | 75% | 1010.5 hPa | 0 mm | - | - | - |
| 1787385393 | 18.33° C | 79% | 1010.8 hPa | 0 mm | - | - | - |
| 1787384643 | 18.33° C | 80% | 1010.7 hPa | 0 mm | - | - | - |
| 1787383893 | 17.22° C | 83% | 1010.8 hPa | 0 mm | - | - | - |
| 1787383143 | 17.22° C | 84% | 1011 hPa | 0 mm | - | - | - |
| 1787382393 | 16.67° C | 87% | 1010.9 hPa | 0 mm | - | - | - |
| 1787381643 | 15.56° C | 89% | 1011.1 hPa | 0 mm | - | - | - |
| 1787380893 | 15° C | 92% | 1011 hPa | 0 mm | - | - | - |
| 1787380143 | 14.44° C | 92% | 1010.9 hPa | 0 mm | - | - | - |
| 1787379393 | 14.44° C | 93% | 1011.1 hPa | 0 mm | - | - | - |
| 1787378643 | 13.89° C | 93% | 1010.9 hPa | 0 mm | - | - | - |
| 1787377893 | 13.89° C | 93% | 1011.1 hPa | 0 mm | - | - | - |
| 1787377143 | 13.89° C | 93% | 1011.1 hPa | 0 mm | - | - | - |
| 1787376393 | 13.89° C | 93% | 1010.9 hPa | 0 mm | - | - | - |
| 1787375643 | 13.89° C | 93% | 1010.8 hPa | 0 mm | - | - | - |
| 1787374893 | 13.89° C | 93% | 1010.8 hPa | 0 mm | - | - | - |
| 1787374143 | 13.33° C | 93% | 1011 hPa | 0 mm | - | - | - |
| 1787373393 | 13.33° C | 93% | 1011.1 hPa | 0 mm | - | - | - |
| 1787372643 | 13.33° C | 93% | 1011.1 hPa | 0 mm | - | - | - |
| 1787371893 | 13.33° C | 93% | 1011 hPa | 0 mm | - | - | - |
| 1787370393 | 13.89° C | 92% | 1011.5 hPa | 0 mm | - | - | - |
| 1787369643 | 13.89° C | 92% | 1011.2 hPa | 0 mm | - | - | - |
| 1787368893 | 13.89° C | 92% | 1011.2 hPa | 0 mm | - | - | - |
| 1787368143 | 13.89° C | 93% | 1011.7 hPa | 0 mm | - | - | - |
| 1787367393 | 13.33° C | 94% | 1011.5 hPa | 0 mm | - | - | - |
* Rain latest hour (hover to see other rain measurements)
** Current wind speed in m/s (hover to see current wind gust speed)